createdAt,value
2022-12-08T00:02:15.157Z,4.52
2022-12-08T00:04:57.721Z,4.53
2022-12-08T00:07:44.253Z,4.53
2022-12-08T00:10:46.735Z,4.53
2022-12-08T00:13:01.254Z,4.51
2022-12-08T00:15:29.865Z,4.49
2022-12-08T00:17:58.254Z,4.46
2022-12-08T00:20:26.832Z,4.43
2022-12-08T00:22:55.272Z,4.44
2022-12-08T00:25:23.801Z,4.42
2022-12-08T00:27:52.229Z,4.46
2022-12-08T00:30:20.879Z,4.47
2022-12-08T00:32:49.370Z,4.44
2022-12-08T00:35:17.834Z,4.45
2022-12-08T00:37:46.236Z,4.44
2022-12-08T00:40:14.733Z,4.42
2022-12-08T00:42:43.092Z,4.39
2022-12-08T00:45:11.871Z,4.38
2022-12-08T00:47:40.356Z,4.35
2022-12-08T00:50:09.459Z,4.36
2022-12-08T00:52:38.042Z,4.33
2022-12-08T00:55:06.929Z,4.32
2022-12-08T00:57:35.401Z,4.33
2022-12-08T01:00:05.198Z,4.35
2022-12-08T01:02:34.447Z,4.37
2022-12-08T01:05:02.871Z,4.37
2022-12-08T01:07:31.290Z,4.37
2022-12-08T01:09:59.820Z,4.39
2022-12-08T01:12:29.982Z,4.37
2022-12-08T01:15:02.313Z,4.38
2022-12-08T01:17:31.304Z,4.36
2022-12-08T01:19:59.826Z,4.38
2022-12-08T01:22:28.415Z,4.37
2022-12-08T01:24:56.897Z,4.40
2022-12-08T01:27:25.459Z,4.41
2022-12-08T01:29:53.862Z,4.41
2022-12-08T01:32:22.335Z,4.41
2022-12-08T01:34:50.773Z,4.37
2022-12-08T01:37:19.386Z,4.38
2022-12-08T01:39:47.839Z,4.34
2022-12-08T01:42:26.525Z,4.35
2022-12-08T01:45:02.809Z,4.34
2022-12-08T01:47:41.308Z,4.33
2022-12-08T01:50:13.281Z,4.29
2022-12-08T01:53:05.291Z,4.29
2022-12-08T01:55:41.252Z,4.25
2022-12-08T01:58:29.119Z,4.26
2022-12-08T02:00:57.595Z,4.23
2022-12-08T02:03:32.983Z,4.23
2022-12-08T02:06:01.493Z,4.25
2022-12-08T02:08:30.063Z,4.27
2022-12-08T02:10:58.609Z,4.25
2022-12-08T02:13:27.384Z,4.26
2022-12-08T02:16:24.883Z,4.25
2022-12-08T02:19:29.235Z,4.26
2022-12-08T02:22:08.958Z,4.26
2022-12-08T02:25:00.040Z,4.27
2022-12-08T02:27:49.781Z,4.31
2022-12-08T02:30:37.735Z,4.34
2022-12-08T02:33:49.477Z,4.36
2022-12-08T02:36:29.571Z,4.39
2022-12-08T02:39:00.875Z,4.43
2022-12-08T02:42:22.114Z,4.44
2022-12-08T02:44:54.233Z,4.45
2022-12-08T02:47:25.100Z,4.45
2022-12-08T02:49:53.577Z,4.47
2022-12-08T02:52:21.990Z,4.47
2022-12-08T02:54:59.752Z,4.47
2022-12-08T02:57:48.765Z,4.48
2022-12-08T03:00:26.450Z,4.41
2022-12-08T03:03:10.846Z,4.43
2022-12-08T03:05:50.836Z,4.45
2022-12-08T03:08:31.931Z,4.46
2022-12-08T03:11:13.083Z,4.46
2022-12-08T03:13:47.983Z,4.45
2022-12-08T03:16:21.449Z,4.47
2022-12-08T03:18:57.921Z,4.47
2022-12-08T03:21:27.211Z,4.46
2022-12-08T03:23:57.708Z,4.45
2022-12-08T03:26:53.555Z,4.43
2022-12-08T03:29:22.140Z,4.45
2022-12-08T03:31:57.986Z,4.40
2022-12-08T03:34:29.805Z,4.42
2022-12-08T03:36:58.592Z,4.36
2022-12-08T03:39:27.135Z,4.40
2022-12-08T03:41:55.680Z,4.40
2022-12-08T03:44:24.100Z,4.41
2022-12-08T03:46:52.567Z,4.38
2022-12-08T03:49:20.999Z,4.37
2022-12-08T03:51:50.244Z,4.35
2022-12-08T03:54:18.756Z,4.30
2022-12-08T03:56:47.159Z,4.31
2022-12-08T03:59:15.670Z,4.31
2022-12-08T04:01:44.077Z,4.30
2022-12-08T04:04:12.598Z,4.25
2022-12-08T04:06:41.183Z,4.22
2022-12-08T04:09:09.594Z,4.19
2022-12-08T04:11:38.152Z,4.18
2022-12-08T04:14:06.706Z,4.12
2022-12-08T04:16:35.199Z,4.10
2022-12-08T04:19:03.919Z,4.11
2022-12-08T04:21:32.327Z,4.10
2022-12-08T04:24:01.607Z,4.09
2022-12-08T04:26:30.479Z,4.08
2022-12-08T04:28:59.090Z,4.09
2022-12-08T04:31:27.666Z,4.09
2022-12-08T04:33:56.216Z,4.08
2022-12-08T04:36:24.591Z,4.10
2022-12-08T04:38:53.147Z,4.10
2022-12-08T04:41:21.535Z,4.11
2022-12-08T04:43:50.296Z,4.11
2022-12-08T04:46:18.792Z,4.12
2022-12-08T04:48:47.354Z,4.13
2022-12-08T04:51:20.562Z,4.14
2022-12-08T04:53:49.280Z,4.15
2022-12-08T04:58:52.288Z,4.12
2022-12-08T05:01:21.089Z,4.12
2022-12-08T05:03:49.566Z,4.12
2022-12-08T05:06:18.304Z,4.14
2022-12-08T05:08:46.845Z,4.15
2022-12-08T05:11:15.540Z,4.15
2022-12-08T05:13:44.055Z,4.18
2022-12-08T05:16:15.236Z,4.18
2022-12-08T05:18:44.616Z,4.20
2022-12-08T05:21:13.139Z,4.21
2022-12-08T05:23:41.639Z,4.22
2022-12-08T05:26:10.325Z,4.25
2022-12-08T05:28:41.772Z,4.27
2022-12-08T05:31:12.225Z,4.28
2022-12-08T05:33:41.119Z,4.30
2022-12-08T05:36:10.835Z,4.27
2022-12-08T05:38:39.615Z,4.24
2022-12-08T05:41:08.853Z,4.23
2022-12-08T05:43:37.581Z,4.26
2022-12-08T05:46:06.359Z,4.27
2022-12-08T05:48:34.997Z,4.31
2022-12-08T05:51:03.981Z,4.31
2022-12-08T05:53:32.665Z,4.32
2022-12-08T05:56:01.117Z,4.32
2022-12-08T05:58:29.580Z,4.33
2022-12-08T06:00:58.078Z,4.33
2022-12-08T06:03:26.560Z,4.34
2022-12-08T06:05:55.194Z,4.33
2022-12-08T06:08:23.640Z,4.33
2022-12-08T06:10:52.069Z,4.31
2022-12-08T06:13:20.497Z,4.26
2022-12-08T06:15:48.932Z,4.25
2022-12-08T06:18:17.650Z,4.23
2022-12-08T06:20:46.158Z,4.16
2022-12-08T06:23:14.730Z,4.11
2022-12-08T06:25:43.214Z,4.10
2022-12-08T06:28:11.681Z,4.05
2022-12-08T06:30:40.075Z,4.02
2022-12-08T06:33:08.514Z,3.98
2022-12-08T06:35:38.758Z,3.98
2022-12-08T06:38:07.247Z,3.95
2022-12-08T06:40:35.713Z,3.91
2022-12-08T06:43:04.127Z,3.89
2022-12-08T06:45:32.685Z,3.87
2022-12-08T06:48:03.520Z,3.82
2022-12-08T06:50:33.348Z,3.84
2022-12-08T06:53:05.528Z,3.83
2022-12-08T06:55:57.697Z,3.79
2022-12-08T06:58:23.133Z,3.76
2022-12-08T07:00:51.686Z,3.72
2022-12-08T07:03:20.637Z,3.74
2022-12-08T07:05:49.451Z,3.73
2022-12-08T07:08:18.216Z,3.74
2022-12-08T07:10:46.805Z,3.74
2022-12-08T07:13:15.236Z,3.76
2022-12-08T07:15:43.655Z,3.76
2022-12-08T07:18:12.185Z,3.78
2022-12-08T07:20:40.841Z,3.82
2022-12-08T07:23:09.307Z,3.83
2022-12-08T07:25:38.151Z,3.85
2022-12-08T07:28:11.207Z,3.90
2022-12-08T07:30:40.622Z,3.90
2022-12-08T07:33:09.123Z,3.96
2022-12-08T07:35:37.605Z,3.99
2022-12-08T07:38:06.105Z,4.03
2022-12-08T07:40:34.704Z,4.08
2022-12-08T07:43:03.114Z,4.08
2022-12-08T07:45:32.025Z,4.12
2022-12-08T07:48:00.687Z,4.14
2022-12-08T07:50:29.143Z,4.17
2022-12-08T07:52:57.645Z,4.22
2022-12-08T07:55:26.259Z,4.21
2022-12-08T07:57:54.679Z,4.17
2022-12-08T08:00:23.297Z,4.23
2022-12-08T08:02:51.778Z,4.25
2022-12-08T08:05:20.791Z,4.29
2022-12-08T08:07:49.362Z,4.32
2022-12-08T08:10:17.903Z,4.33
2022-12-08T08:12:46.329Z,4.35
2022-12-08T08:15:14.803Z,4.37
2022-12-08T08:17:43.245Z,4.40
2022-12-08T08:20:12.417Z,4.41
2022-12-08T08:22:40.853Z,4.42
2022-12-08T08:25:09.660Z,4.45
2022-12-08T08:27:38.175Z,4.49
2022-12-08T08:30:08.931Z,4.55
2022-12-08T08:32:37.810Z,4.60
2022-12-08T08:35:06.819Z,4.65
2022-12-08T08:37:35.347Z,4.66
2022-12-08T08:40:04.573Z,4.66
2022-12-08T08:42:33.228Z,4.67
2022-12-08T08:45:01.668Z,4.70
2022-12-08T08:47:30.137Z,4.74
2022-12-08T08:49:58.563Z,4.80
2022-12-08T08:52:27.037Z,4.90
2022-12-08T08:54:55.642Z,4.98
2022-12-08T08:57:25.971Z,5.03
2022-12-08T08:59:55.124Z,5.08
2022-12-08T09:02:23.993Z,5.05
2022-12-08T09:04:52.715Z,5.09
2022-12-08T09:07:21.350Z,5.12
2022-12-08T09:09:50.026Z,5.14
2022-12-08T09:12:19.269Z,5.16
2022-12-08T09:14:47.283Z,5.21
2022-12-08T09:17:15.864Z,5.27
2022-12-08T09:19:44.428Z,5.35
2022-12-08T09:22:12.844Z,5.39
2022-12-08T09:24:41.272Z,5.43
2022-12-08T09:27:09.722Z,5.48
2022-12-08T09:29:38.199Z,5.52
2022-12-08T09:32:06.974Z,5.54
2022-12-08T09:34:35.475Z,5.55
2022-12-08T09:37:04.042Z,5.52
2022-12-08T09:39:32.541Z,5.55
2022-12-08T09:42:06.852Z,5.57
2022-12-08T09:45:15.956Z,5.56
2022-12-08T09:48:02.270Z,5.60
2022-12-08T09:50:56.824Z,5.63
2022-12-08T09:53:53.389Z,5.68
2022-12-08T09:56:26.125Z,5.65
2022-12-08T09:58:55.559Z,5.69
2022-12-08T10:01:32.881Z,5.73
2022-12-08T10:04:03.050Z,5.75
2022-12-08T10:06:42.695Z,5.75
2022-12-08T10:09:31.277Z,5.76
2022-12-08T10:12:10.231Z,5.78
2022-12-08T10:15:06.837Z,5.77
2022-12-08T10:17:45.812Z,5.77
2022-12-08T10:20:18.273Z,5.75
2022-12-08T10:23:11.554Z,5.78
2022-12-08T10:26:03.306Z,5.84
2022-12-08T10:28:32.471Z,5.82
2022-12-08T10:31:00.821Z,5.80
2022-12-08T10:33:30.297Z,5.86
2022-12-08T10:36:03.121Z,5.88
2022-12-08T10:38:34.732Z,5.86
2022-12-08T10:41:13.311Z,5.89
2022-12-08T10:44:00.715Z,5.95
2022-12-08T10:46:30.272Z,6.00
2022-12-08T10:49:07.429Z,6.06
2022-12-08T10:51:35.836Z,6.04
2022-12-08T10:54:06.124Z,6.10
2022-12-08T10:56:34.600Z,6.16
2022-12-08T10:59:21.195Z,6.23
2022-12-08T11:01:55.082Z,6.26
2022-12-08T11:04:41.153Z,6.23
2022-12-08T11:07:11.693Z,6.26
2022-12-08T11:09:48.931Z,6.26
2022-12-08T11:12:19.484Z,6.28
2022-12-08T11:15:03.463Z,6.31
2022-12-08T11:17:39.603Z,6.36
2022-12-08T11:20:10.681Z,6.40
2022-12-08T11:22:43.561Z,6.40
2022-12-08T11:25:19.571Z,6.43
2022-12-08T11:27:51.431Z,6.52
2022-12-08T11:30:22.141Z,6.57
2022-12-08T11:32:57.839Z,6.64
2022-12-08T11:35:32.055Z,6.67
2022-12-08T11:38:21.648Z,6.69
2022-12-08T11:41:16.922Z,6.66
2022-12-08T11:44:14.254Z,6.64
2022-12-08T11:46:50.174Z,6.63
2022-12-08T11:49:20.175Z,6.58
2022-12-08T11:52:07.321Z,6.51
2022-12-08T11:54:43.892Z,6.51
2022-12-08T11:57:20.613Z,6.53
2022-12-08T11:59:55.919Z,6.49
2022-12-08T12:02:28.987Z,6.57
2022-12-08T12:05:47.584Z,6.46
2022-12-08T12:09:08.701Z,6.47
2022-12-08T12:12:13.028Z,6.39
2022-12-08T12:14:52.142Z,6.35
2022-12-08T12:17:54.023Z,6.35
2022-12-08T12:20:52.662Z,6.33
2022-12-08T12:23:40.595Z,6.31
2022-12-08T12:26:19.032Z,6.29
2022-12-08T12:29:06.403Z,6.31
2022-12-08T12:31:42.795Z,6.28
2022-12-08T12:34:22.484Z,6.24
2022-12-08T12:37:23.846Z,6.23
2022-12-08T12:39:55.087Z,6.20
2022-12-08T12:42:41.612Z,6.12
2022-12-08T12:45:18.444Z,6.12
2022-12-08T12:47:58.933Z,6.12
2022-12-08T12:50:37.019Z,6.11
2022-12-08T12:53:12.371Z,6.13
2022-12-08T12:55:57.524Z,6.15
2022-12-08T12:58:31.714Z,6.15
2022-12-08T13:01:12.106Z,6.11
2022-12-08T13:03:42.973Z,6.11
2022-12-08T13:06:14.765Z,6.12
2022-12-08T13:08:53.916Z,6.12
2022-12-08T13:11:23.952Z,6.13
2022-12-08T13:14:04.944Z,6.15
2022-12-08T13:16:39.074Z,6.15
2022-12-08T13:19:16.058Z,6.11
2022-12-08T13:21:44.685Z,6.11
2022-12-08T13:24:13.189Z,6.13
2022-12-08T13:27:11.872Z,6.13
2022-12-08T13:29:41.008Z,6.12
2022-12-08T13:32:09.727Z,6.14
2022-12-08T13:34:51.018Z,6.13
2022-12-08T13:37:53.845Z,6.12
2022-12-08T13:40:30.183Z,6.12
2022-12-08T13:43:43.469Z,6.09
2022-12-08T13:55:42.399Z,6.01
2022-12-08T13:57:36.851Z,5.99
2022-12-08T14:00:22.324Z,5.98
2022-12-08T14:02:54.592Z,6.01
2022-12-08T14:05:47.553Z,5.99
2022-12-08T14:08:59.900Z,5.94
2022-12-08T14:11:52.009Z,5.93
2022-12-08T14:15:01.158Z,5.90
2022-12-08T14:17:23.064Z,5.82
2022-12-08T14:20:00.563Z,5.79
2022-12-08T14:22:38.310Z,5.76
2022-12-08T14:25:17.422Z,5.73
2022-12-08T14:27:47.109Z,5.69
2022-12-08T14:30:15.303Z,5.65
2022-12-08T14:32:48.544Z,5.62
2022-12-08T14:35:34.655Z,5.59
2022-12-08T14:38:06.286Z,5.59
2022-12-08T14:40:39.348Z,5.57
2022-12-08T14:43:10.429Z,5.57
2022-12-08T14:45:44.702Z,5.57
2022-12-08T14:48:34.691Z,5.56
2022-12-08T14:51:27.656Z,5.57
2022-12-08T14:54:16.338Z,5.55
2022-12-08T14:56:54.839Z,5.55
2022-12-08T14:59:29.660Z,5.53
2022-12-08T15:02:19.399Z,5.54
2022-12-08T15:04:50.770Z,5.54
2022-12-08T15:07:23.003Z,5.54
2022-12-08T15:10:11.474Z,5.53
2022-12-08T15:12:39.494Z,5.51
2022-12-08T15:15:10.560Z,5.47
2022-12-08T15:18:12.273Z,5.46
2022-12-08T15:20:43.967Z,5.46
2022-12-08T15:23:47.746Z,5.49
2022-12-08T15:26:29.095Z,5.53
2022-12-08T15:28:57.873Z,5.52
2022-12-08T15:31:26.422Z,5.51
2022-12-08T15:33:54.946Z,5.52
2022-12-08T15:36:23.587Z,5.51
2022-12-08T15:38:52.015Z,5.54
2022-12-08T15:41:20.486Z,5.55
2022-12-08T15:43:48.932Z,5.53
2022-12-08T15:46:17.022Z,5.51
2022-12-08T15:48:45.477Z,5.48
2022-12-08T15:51:13.958Z,5.48
2022-12-08T15:53:42.475Z,5.47
2022-12-08T15:56:28.085Z,5.49
2022-12-08T15:58:58.189Z,5.47
2022-12-08T16:01:27.423Z,5.47
2022-12-08T16:09:44.603Z,5.50
2022-12-08T16:13:48.196Z,5.48
2022-12-08T16:15:52.996Z,5.50
2022-12-08T16:18:28.991Z,5.48
2022-12-08T16:21:09.757Z,5.48
2022-12-08T16:23:46.336Z,5.50
2022-12-08T16:26:54.497Z,5.50
2022-12-08T16:29:08.898Z,5.30
2022-12-08T16:31:37.420Z,4.97
2022-12-08T16:34:05.930Z,4.47
2022-12-08T16:36:34.366Z,4.51
2022-12-08T16:39:02.952Z,4.28
2022-12-08T16:41:48.767Z,4.22
2022-12-08T16:44:17.267Z,3.79
2022-12-08T16:46:45.743Z,3.71
2022-12-08T16:49:15.561Z,3.57
2022-12-08T16:51:44.833Z,3.41
2022-12-08T16:54:13.221Z,3.40
2022-12-08T16:56:41.687Z,3.31
2022-12-08T16:59:11.643Z,3.26
2022-12-08T17:01:40.730Z,3.11
2022-12-08T17:06:58.328Z,2.89
2022-12-08T17:09:28.582Z,2.88
2022-12-08T17:12:03.316Z,2.88
2022-12-08T17:14:36.073Z,2.87
2022-12-08T17:17:04.778Z,2.92
2022-12-08T17:19:34.022Z,2.92
2022-12-08T17:22:03.301Z,2.98
2022-12-08T17:24:32.219Z,3.05
2022-12-08T17:27:04.037Z,3.04
2022-12-08T17:29:33.789Z,3.05
2022-12-08T17:32:03.180Z,3.01
2022-12-08T17:34:31.812Z,2.93
2022-12-08T17:37:00.217Z,2.91
2022-12-08T17:39:28.657Z,2.88
2022-12-08T17:41:57.297Z,2.87
2022-12-08T17:44:26.016Z,2.82
2022-12-08T17:46:54.427Z,2.81
2022-12-08T17:49:25.753Z,2.87
2022-12-08T17:51:57.386Z,2.89
2022-12-08T17:54:26.739Z,2.92
2022-12-08T17:56:58.007Z,2.91
2022-12-08T17:59:27.925Z,2.88
2022-12-08T18:01:57.979Z,2.93
2022-12-08T18:04:27.153Z,2.97
2022-12-08T18:06:58.355Z,3.05
2022-12-08T18:09:26.808Z,3.01
2022-12-08T18:11:55.315Z,3.04
2022-12-08T18:14:23.824Z,3.02
2022-12-08T18:16:52.294Z,3.04
2022-12-08T18:19:22.709Z,3.03
2022-12-08T18:21:51.293Z,3.03
2022-12-08T18:24:23.612Z,3.06
2022-12-08T18:26:52.967Z,3.07
2022-12-08T18:29:22.705Z,3.09
2022-12-08T18:31:51.915Z,3.10
2022-12-08T18:34:20.650Z,3.12
2022-12-08T18:36:49.619Z,3.10
2022-12-08T18:39:33.381Z,3.08
2022-12-08T18:42:22.697Z,3.09
2022-12-08T18:44:59.245Z,3.14
2022-12-08T18:47:27.748Z,3.21
2022-12-08T18:49:56.675Z,3.21
2022-12-08T18:52:31.579Z,3.21
2022-12-08T18:55:08.373Z,3.16
2022-12-08T18:57:40.129Z,3.09
2022-12-08T19:00:11.833Z,3.08
2022-12-08T19:02:40.559Z,3.08
2022-12-08T19:05:11.472Z,3.10
2022-12-08T19:07:42.605Z,3.10
2022-12-08T19:10:11.843Z,3.10
2022-12-08T19:12:40.286Z,3.10
2022-12-08T19:15:09.421Z,3.15
2022-12-08T19:17:38.042Z,3.19
2022-12-08T19:20:07.752Z,3.17
2022-12-08T19:22:36.530Z,3.19
2022-12-08T19:25:06.307Z,3.23
2022-12-08T19:27:34.855Z,3.23
2022-12-08T19:30:03.848Z,3.24
2022-12-08T19:32:32.461Z,3.17
2022-12-08T19:35:00.944Z,3.22
2022-12-08T19:37:29.529Z,3.19
2022-12-08T19:40:15.312Z,3.20
2022-12-08T19:43:01.663Z,3.19
2022-12-08T19:45:30.266Z,3.19
2022-12-08T19:47:59.123Z,3.15
2022-12-08T19:50:40.452Z,3.18
2022-12-08T19:53:17.893Z,3.14
2022-12-08T19:55:46.455Z,3.13
2022-12-08T19:58:14.980Z,3.10
2022-12-08T20:00:44.287Z,3.08
2022-12-08T20:03:20.832Z,3.09
2022-12-08T20:05:52.660Z,3.06
2022-12-08T20:08:21.327Z,3.05
2022-12-08T20:10:50.022Z,3.02
2022-12-08T20:13:35.847Z,2.90
2022-12-08T20:16:04.529Z,2.80
2022-12-08T20:18:35.319Z,2.80
2022-12-08T20:21:03.817Z,2.85
2022-12-08T20:23:32.718Z,2.91
2022-12-08T20:26:04.830Z,2.91
2022-12-08T20:28:33.337Z,2.87
2022-12-08T20:31:02.393Z,2.82
2022-12-08T20:33:31.050Z,2.76
2022-12-08T20:36:06.159Z,2.77
2022-12-08T20:38:34.567Z,2.79
2022-12-08T20:41:03.113Z,2.82
2022-12-08T20:43:31.630Z,2.89
2022-12-08T20:46:00.294Z,2.96
2022-12-08T20:48:28.892Z,2.98
2022-12-08T20:50:57.556Z,3.00
2022-12-08T20:53:25.982Z,3.00
2022-12-08T20:55:54.520Z,2.98
2022-12-08T20:58:23.220Z,2.98
2022-12-08T21:00:51.844Z,3.00
2022-12-08T21:03:20.430Z,3.01
2022-12-08T21:05:53.221Z,3.01
2022-12-08T21:08:25.391Z,2.97
2022-12-08T21:10:58.239Z,2.91
2022-12-08T21:13:27.006Z,2.92
2022-12-08T21:15:55.879Z,2.94
2022-12-08T21:18:24.814Z,2.92
2022-12-08T21:20:54.398Z,2.90
2022-12-08T21:23:23.016Z,2.81
2022-12-08T21:25:51.517Z,2.77
2022-12-08T21:28:20.082Z,2.77
2022-12-08T21:30:48.743Z,2.71
2022-12-08T21:33:17.950Z,2.70
2022-12-08T21:35:46.917Z,2.65
2022-12-08T21:38:15.465Z,2.64
2022-12-08T21:40:44.262Z,2.64
2022-12-08T21:43:13.777Z,2.62
2022-12-08T21:45:42.350Z,2.62
2022-12-08T21:48:12.089Z,2.65
2022-12-08T21:50:41.112Z,2.62
2022-12-08T21:53:10.867Z,2.63
2022-12-08T21:55:39.793Z,2.60
2022-12-08T21:58:08.439Z,2.59
2022-12-08T22:00:37.261Z,2.64
2022-12-08T22:03:08.004Z,2.61
2022-12-08T22:05:37.237Z,2.61
2022-12-08T22:08:06.087Z,2.64
2022-12-08T22:10:34.930Z,2.61
2022-12-08T22:13:03.652Z,2.59
2022-12-08T22:15:33.116Z,2.65
2022-12-08T22:18:01.713Z,2.71
2022-12-08T22:20:30.439Z,2.74
2022-12-08T22:22:59.071Z,2.81
2022-12-08T22:25:27.676Z,2.85
2022-12-08T22:27:56.272Z,2.86
2022-12-08T22:30:25.107Z,2.80
2022-12-08T22:32:53.720Z,2.79
2022-12-08T22:35:22.251Z,2.85
2022-12-08T22:37:51.207Z,2.88
2022-12-08T22:40:20.188Z,2.89
2022-12-08T22:42:48.692Z,2.91
2022-12-08T22:45:17.214Z,2.88
2022-12-08T22:47:45.683Z,2.87
2022-12-08T22:50:14.938Z,2.84
2022-12-08T22:52:43.549Z,2.83
2022-12-08T22:55:12.275Z,2.80
2022-12-08T22:57:40.776Z,2.74
2022-12-08T23:00:11.490Z,2.71
2022-12-08T23:02:40.869Z,2.70
2022-12-08T23:05:10.526Z,2.70
2022-12-08T23:07:39.615Z,2.64
2022-12-08T23:10:09.581Z,2.69
2022-12-08T23:12:38.481Z,2.73
2022-12-08T23:15:07.788Z,2.76
2022-12-08T23:17:36.543Z,2.80
2022-12-08T23:20:06.061Z,2.81
2022-12-08T23:22:35.239Z,2.83
2022-12-08T23:25:03.897Z,2.85
2022-12-08T23:27:33.063Z,2.85
2022-12-08T23:30:01.742Z,2.85
2022-12-08T23:32:30.298Z,2.83
2022-12-08T23:34:59.009Z,2.83
2022-12-08T23:37:27.464Z,2.84
2022-12-08T23:39:56.180Z,2.84
2022-12-08T23:42:24.750Z,2.82
2022-12-08T23:44:53.251Z,2.76
2022-12-08T23:47:23.096Z,2.80
2022-12-08T23:49:51.695Z,2.84
2022-12-08T23:52:20.313Z,2.79
2022-12-08T23:54:51.731Z,2.84
2022-12-08T23:57:20.429Z,2.85
2022-12-08T23:59:49.216Z,2.84
